• Join FlightAware (Why Join?)
  • Login
  • US Flag 
11:01AM EDT


 

Airport Tracker/Info


-or-


 

Live Flight TrackerFlight Track Log ✈ UAL780 ✈ 19-May-2013 ✈ KPIT - KIAH

Flight Track Log - Related Links

Times and Time Zones

All times are in EDT time to prevent confusion due to time zone crossing. See the UAL780 flight status page for this flight to view local times or setup timezone preferences in your user account.

Time Position Orientation Groundspeed Altitude Reporting Facility
EDT Latitude Longitude Course Direction KTS MPH feet Rate Location/Type
11:15AM 40.5564 -80.1869 253° West 260 299 6,400  Level Cleveland Center
11:16AM 40.5483 -80.2933 264° West 287 330 8,900 2,220 Climbing Cleveland Center
11:17AM 40.5464 -80.3919 269° West 305 351 10,900 2,340 Climbing Cleveland Center
11:18AM 40.5403 -80.5339 267° West 337 388 13,600 2,460 Climbing Cleveland Center
11:19AM 40.5361 -80.6622 268° West 351 404 15,900 2,100 Climbing Cleveland Center
11:20AM 40.4151 -82.2711 253° West  Level FlightAware Approximate
11:20AM 40.5297 -80.7961 266° West 363 418 17,800  Level Cleveland Center
11:21AM 40.3870 -82.3946 253° West  Level FlightAware Approximate
11:21AM 40.5231 -80.9356 266° West 374 430 19,700  Level Cleveland Center
11:22AM 40.5164 -81.0803 267° West 386 444 21,400 1,500 Climbing Cleveland Center
11:25AM 40.4981 -81.3836 266° West 408 470 24,500 1,380 Climbing Indianapolis Center
11:26AM 40.4900 -81.5394 266° West 421 484 26,000 1,260 Climbing Indianapolis Center
11:27AM 40.4817 -81.6961 266° West 427 491 27,200 1,200 Climbing Indianapolis Center
11:28AM 40.4719 -81.8828 266° West 434 499 28,500 1,200 Climbing Indianapolis Center
11:29AM 40.4631 -82.0469 266° West 445 512 29,700 1,140 Climbing Indianapolis Center
11:30AM 40.4378 -82.2044 258° West 440 506 30,900 1,140 Climbing Indianapolis Center
11:31AM 40.4003 -82.3603 253° West 442 509 32,100 1,020 Climbing Indianapolis Center
11:32AM 40.3625 -82.5144 252° West 441 507 33,100 960 Climbing Indianapolis Center
11:33AM 40.3244 -82.6675 252° West 438 504 34,100 960 Climbing Indianapolis Center
11:34AM 40.2817 -82.8347 252° West 437 503 35,100 840 Climbing Indianapolis Center
11:35AM 40.2431 -82.9875 252° West 439 505 35,900 420 Climbing Indianapolis Center
11:36AM 40.2058 -83.1378 252° West 435 501 36,000  Climbing Indianapolis Center
11:37AM 40.1664 -83.2875 251° West 433 498 36,000  Level Indianapolis Center
11:38AM 40.1281 -83.4386 252° West 438 504 36,000  Level Indianapolis Center
11:39AM 40.0886 -83.5892 251° West 439 505 36,000  Level Indianapolis Center
11:40AM 40.0436 -83.7653 252° West 440 506 36,000  Level Indianapolis Center
11:41AM 40.0036 -83.9142 251° West 436 502 36,000  Level Indianapolis Center
11:42AM 39.9633 -84.0644 251° West 438 504 36,000  Level Indianapolis Center
11:43AM 39.9233 -84.2158 251° West 438 504 36,000  Level Indianapolis Center
11:44AM 39.8825 -84.3678 251° West 440 506 36,000  Level Indianapolis Center
11:45AM 39.8419 -84.5183 251° West 438 504 36,000  Level Indianapolis Center
11:46AM 39.8000 -84.6686 250° West 439 505 36,000  Level Indianapolis Center
11:47AM 39.7433 -84.8378 247° West 434 499 36,000  Level Indianapolis Center
11:48AM 39.6753 -84.9400 229° Southwest 429 494 36,000  Level Indianapolis Center
11:49AM 39.5858 -85.0478 223° Southwest 435 501 36,000  Level Indianapolis Center
11:50AM 39.4794 -85.1783 223° Southwest 437 503 36,000  Level Indianapolis Center
11:51AM 39.3900 -85.2872 223° Southwest 441 507 36,000  Level Indianapolis Center
11:52AM 39.3019 -85.3972 224° Southwest 439 505 36,000  Level Indianapolis Center
11:53AM 39.2114 -85.5069 223° Southwest 444 511 36,000  Level Indianapolis Center
11:54AM 39.1208 -85.6153 223° Southwest 444 511 36,100  Climbing Indianapolis Center
11:56AM 39.0331 -85.7231 224° Southwest 437 503 36,000 -60 Descending Indianapolis Center
11:57AM 38.9431 -85.8311 223° Southwest 439 505 36,000  Level Indianapolis Center
11:58AM 38.8400 -85.9561 223° Southwest 440 506 36,000  Level Indianapolis Center
11:59AM 38.7486 -86.0636 223° Southwest 444 511 36,000  Level Indianapolis Center
12:00PM 38.6569 -86.1736 223° Southwest 448 516 36,000  Level Indianapolis Center
12:01PM 38.5650 -86.2814 223° Southwest 448 516 36,000  Level Indianapolis Center
12:02PM 38.4725 -86.3908 223° Southwest 450 518 36,000  Level Indianapolis Center
12:03PM 38.3789 -86.5003 223° Southwest 452 520 36,000  Level Indianapolis Center
12:04PM 38.2853 -86.6108 223° Southwest 455 524 36,000  Level Indianapolis Center
12:05PM 38.1917 -86.7189 222° Southwest 451 519 36,000  Level Indianapolis Center
12:06PM 38.0786 -86.8519 223° Southwest 452 520 36,000  Level Indianapolis Center
12:07PM 37.9850 -86.9608 223° Southwest 451 519 36,000  Level Indianapolis Center
12:08PM 37.8919 -87.0686 222° Southwest 449 517 36,000  Level Indianapolis Center
12:09PM 37.7986 -87.1764 222° Southwest 449 517 36,000  Level Indianapolis Center
12:10PM 37.7008 -87.2883 222° Southwest 450 518 36,100  Climbing Indianapolis Center
12:11PM 37.6072 -87.3964 222° Southwest 453 521 36,000  Descending Indianapolis Center
12:11PM 37.5806 -87.4289 224° Southwest 452 520 36,100  Climbing Memphis Center
12:12PM 37.4872 -87.5342 222° Southwest 452 520 36,000 -60 Descending Memphis Center
12:13PM 37.4058 -87.6258 222° Southwest 452 520 36,000  Level Memphis Center
12:14PM 37.3144 -87.7308 222° Southwest 452 520 36,000  Level Memphis Center
12:15PM 37.2228 -87.8353 222° Southwest 447 514 36,000  Level Memphis Center
12:16PM 37.1272 -87.9425 222° Southwest 454 522 36,000  Level Memphis Center
12:17PM 37.0353 -88.0442 221° Southwest 454 522 36,000  Level Memphis Center
12:18PM 36.9331 -88.1586 222° Southwest 449 517 36,100  Climbing Memphis Center
12:19PM 36.8414 -88.2647 223° Southwest 454 522 36,000 -60 Descending Memphis Center
12:20PM 36.7472 -88.3683 221° Southwest 454 522 36,000  Level Memphis Center
12:21PM 36.6550 -88.4689 221° Southwest 454 522 36,000  Level Memphis Center
12:22PM 36.5606 -88.5692 220° Southwest 454 522 36,000  Level Memphis Center
12:23PM 36.4661 -88.6694 221° Southwest 454 522 36,000  Level Memphis Center
12:24PM 36.3736 -88.7719 222° Southwest 454 522 36,000  Level Memphis Center
12:25PM 36.2789 -88.8717 220° Southwest 454 522 36,000  Level Memphis Center
12:26PM 36.1864 -88.9736 222° Southwest 454 522 36,000  Level Memphis Center
12:27PM 36.0894 -89.0753 220° Southwest 454 522 36,000  Level Memphis Center
12:28PM 35.9986 -89.1742 221° Southwest 454 522 36,000  Level Memphis Center
12:29PM 35.9056 -89.2731 221° Southwest 454 522 36,000  Level Memphis Center
12:30PM 35.8128 -89.3739 221° Southwest 454 522 36,000 300 Level Memphis Center
12:31PM 35.7217 -89.4747 222° Southwest 454 522 36,700 600 Climbing Memphis Center
12:32PM 35.6347 -89.5703 222° Southwest 441 507 37,300 480 Climbing Memphis Center
12:33PM 35.5519 -89.6578 221° Southwest 436 502 37,700 300 Climbing Memphis Center
12:34PM 35.4586 -89.7581 221° Southwest 441 507 38,000 120 Climbing Memphis Center
12:35PM 35.3608 -89.8606 221° Southwest 452 520 38,000  Level Memphis Center
12:36PM 35.2675 -89.9628 222° Southwest 457 526 38,000  Level Memphis Center
12:37PM 35.1675 -90.0600 218° Southwest 457 526 38,000  Level Memphis Center
12:38PM 35.0636 -90.1517 216° Southwest 457 526 38,000  Level Memphis Center
12:39PM 34.9592 -90.2406 215° Southwest 462 532 38,000  Level Memphis Center
12:40PM 34.8550 -90.3292 215° Southwest 462 532 38,000  Level Memphis Center
12:41PM 34.7528 -90.4178 215° Southwest 462 532 38,000  Level Memphis Center
12:42PM 34.6483 -90.5036 214° Southwest 462 532 38,100  Climbing Memphis Center
12:43PM 34.5461 -90.5892 215° Southwest 462 532 38,000 -60 Descending Memphis Center
12:44PM 34.4414 -90.6744 214° Southwest 462 532 38,000  Level Memphis Center
12:45PM 34.3306 -90.7672 215° Southwest 447 514 38,000  Level Memphis Center
12:46PM 34.2303 -90.8519 215° Southwest 447 514 38,000  Level Memphis Center
12:47PM 34.1297 -90.9369 215° Southwest 442 509 38,000  Level Memphis Center
12:48PM 34.0292 -91.0189 214° Southwest 447 514 38,000  Level Memphis Center
12:49PM 33.9283 -91.1033 215° Southwest 440 506 38,000  Level Memphis Center
12:50PM 33.8256 -91.1825 213° Southwest 446 513 38,000  Level Memphis Center
12:51PM 33.7292 -91.2664 216° Southwest 441 507 38,000  Level Memphis Center
12:52PM 33.6367 -91.3403 214° Southwest 441 507 38,000  Level Memphis Center
12:53PM 33.5358 -91.4239 215° Southwest 447 514 38,000  Level Memphis Center
12:55PM 33.3172 -91.6094 215° Southwest 426 490 38,000  Level Fort Worth Center
12:56PM 33.2125 -91.6908 213° Southwest 438 504 38,000  Level Fort Worth Center
12:57PM 33.1200 -91.7686 215° Southwest 455 524 38,100  Climbing Fort Worth Center
12:58PM 33.0131 -91.8497 212° Southwest 442 509 38,000 -60 Descending Fort Worth Center
12:59PM 32.9142 -91.9275 213° Southwest 437 503 38,000  Level Fort Worth Center
01:00PM 32.8133 -92.0103 215° Southwest 437 503 38,000  Level Fort Worth Center
01:01PM 32.7186 -92.0878 215° Southwest 427 491 38,000  Level Fort Worth Center
01:04PM 32.5036 -92.2644 215° Southwest 427 491 38,000  Level Houston Center
01:05PM 32.4047 -92.3403 213° Southwest 425 489 38,000  Level Houston Center
01:06PM 32.3072 -92.4175 214° Southwest 423 487 38,000  Level Houston Center
01:07PM 32.2089 -92.4950 214° Southwest 424 488 38,000  Level Houston Center
01:08PM 32.1097 -92.5736 214° Southwest 427 491 38,000 -360 Level Houston Center
01:09PM 31.9900 -92.6658 213° Southwest 429 494 37,300 -960 Descending Houston Center
01:10PM 31.8972 -92.7539 219° Southwest 428 493 36,000 -660 Descending Houston Center
01:11PM 31.8036 -92.8419 219° Southwest 431 496 36,000  Level Houston Center
01:12PM 31.7106 -92.9339 220° Southwest 435 501 36,000  Level Houston Center
01:13PM 31.6178 -93.0214 219° Southwest 431 496 36,000  Level Houston Center
01:14PM 31.5231 -93.1128 219° Southwest 441 507 36,000  Level Houston Center
01:15PM 31.4092 -93.2211 219° Southwest 441 507 36,000 -120 Level Houston Center
01:16PM 31.3092 -93.3158 219° Southwest 439 505 35,800 -600 Descending Houston Center
01:17PM 31.2203 -93.4000 219° Southwest 437 503 34,800 -1,500 Descending Houston Center
01:18PM 31.1267 -93.4894 219° Southwest 438 504 32,700 -2,040 Descending Houston Center
01:19PM 31.0331 -93.5781 219° Southwest 436 502 30,700 -2,160 Descending Houston Center
01:20PM 30.9247 -93.6819 219° Southwest 425 489 28,300 -2,100 Descending Houston Center
01:21PM 30.8367 -93.7661 219° Southwest 415 478 26,400 -1,860 Descending Houston Center
01:22PM 30.7500 -93.8469 219° Southwest 405 466 24,500 -1,920 Descending Houston Center
01:23PM 30.6653 -93.9267 219° Southwest 397 457 22,500 -1,860 Descending Houston Center
01:24PM 30.5825 -94.0042 219° Southwest 385 443 20,700 -1,980 Descending Houston Center
01:25PM 30.5503 -94.0364 221° Southwest 378 435 19,900 -2,280 Descending Houston Center
01:25PM 30.5039 -94.0767 217° Southwest 372 428 18,900 -1,920 Descending Houston Center
01:26PM 30.4156 -94.1614 220° Southwest 361 415 16,800 -1,860 Descending Houston Center
01:27PM 30.3425 -94.2292 219° Southwest 352 405 15,000 -1,620 Descending Houston Center
01:28PM 30.2656 -94.3000 218° Southwest 337 388 13,500 -1,560 Descending Houston Center
01:29PM 30.1972 -94.3742 223° Southwest 325 374 11,900 -1,140 Descending Houston Center
01:30PM 30.1775 -94.4736 257° West 323 372 11,300 -600 Descending Houston Center
01:31PM 30.1608 -94.5822 260° West 322 371 10,800 -600 Descending Houston Center
01:32PM 30.1433 -94.6836 259° West 317 365 10,200 -600 Descending Houston Center
01:33PM 30.1417 -94.6967 262° West 317 365 10,100 -660 Descending Houston Center
01:33PM 30.1267 -94.7728 257° West 310 357 9,600 -600 Descending Houston Center
01:34PM 30.1247 -94.7936 264° West 312 359 9,500 -600 Descending Houston Center
01:34PM 30.1108 -94.8714 258° West 286 329 9,000 -540 Descending Houston Center
01:35PM 30.1100 -94.8839 266° West 295 339 9,000 -480 Level Houston Center
01:35PM 30.1064 -94.9564 267° West 293 337 8,600 -540 Descending Houston Center
01:36PM 30.1058 -94.9761 268° West 289 333 8,500 -660 Descending Houston Center
01:36PM 30.1058 -95.0628 270° West 291 335 7,900 -1,020 Descending Houston Center
01:37PM 30.1061 -95.0869 271° West 290 334 7,500 -1,620 Descending Houston Center
01:37PM 30.1061 -95.1569 270° West 288 331 6,300 -1,500 Descending Houston Center
01:38PM 30.1067 -95.1786 272° West 289 333 6,000 -300 Descending Houston Center
01:38PM 30.1064 -95.2489 270° West 285 328 6,000  Level Houston Center
01:39PM 30.1075 -95.2700 273° West 288 331 6,000  Level Houston Center
01:40PM 30.1072 -95.3564 270° West 278 320 6,000 -360 Level Houston Center
01:41PM 30.1067 -95.4131 269° West 207 238 5,400 -720 Descending Houston Center
01:41PM 30.1083 -95.4236 280° West 226 260 5,300 -1,500 Descending Houston Center
01:42PM 30.0944 -95.4650 249° West 157 181 3,900 -2,040 Descending Houston Center
01:42PM 30.0797 -95.4681 190° South 164 189 3,200 -1,920 Descending Houston Center